Time;durP1;ratioP1;P1;durP2;ratioP2;P2;SDS_P1;SDS_P2;PMS_P1;PMS_P2;Temp;Humidity;BMP_temperature;BMP_pressure;BME280_temperature;BME280_humidity;BME280_pressure;Samples;Min_cycle;Max_cycle;Signal;HPM_P1;HPM_P2
2021/10/11 00:02:15;;;;;;;25.85;18.20;;;12.60;99.90;;;;;;5056020;28;20025;-77
2021/10/11 00:04:41;;;;;;;24.98;20.05;;;12.80;99.90;;;;;;5054340;28;20378;-77
2021/10/11 00:07:08;;;;;;;27.63;20.30;;;12.80;99.90;;;;;;5055365;28;20028;-77
2021/10/11 00:09:35;;;;;;;26.20;20.33;;;12.90;99.90;;;;;;5054336;28;20317;-77
2021/10/11 00:12:01;;;;;;;27.98;20.63;;;12.90;99.90;;;;;;5054498;28;20436;-77
2021/10/11 00:14:27;;;;;;;23.65;17.98;;;13.30;99.90;;;;;;5055726;28;20394;-77
2021/10/11 00:16:53;;;;;;;29.40;19.85;;;13.40;99.90;;;;;;5054055;28;20025;-76
2021/10/11 00:19:19;;;;;;;23.73;19.08;;;13.40;99.90;;;;;;5030361;28;20049;-77
2021/10/11 00:21:45;;;;;;;27.52;20.83;;;13.20;99.90;;;;;;5055524;28;20098;-77
2021/10/11 00:24:11;;;;;;;26.25;21.10;;;13.00;99.90;;;;;;5055554;28;20025;-77
2021/10/11 00:26:36;;;;;;;25.35;20.20;;;12.90;99.90;;;;;;5055334;28;20074;-77
2021/10/11 00:29:03;;;;;;;29.92;21.50;;;12.60;99.90;;;;;;5055398;28;20039;-77
2021/10/11 00:31:29;;;;;;;27.60;21.75;;;12.50;99.90;;;;;;5055179;28;20041;-77
2021/10/11 00:33:56;;;;;;;;;;;12.60;99.90;;;;;;5055510;28;20104;-77
2021/10/11 00:36:23;;;;;;;27.30;21.60;;;12.60;99.90;;;;;;5055411;28;19954;-77
2021/10/11 00:38:48;;;;;;;21.75;15.85;;;12.60;99.90;;;;;;5054709;28;20036;-77
2021/10/11 00:41:14;;;;;;;21.85;14.93;;;12.90;99.90;;;;;;5055271;28;20476;-77
2021/10/11 00:43:41;;;;;;;;;;;13.20;99.90;;;;;;5055606;28;20029;-77
2021/10/11 00:46:07;;;;;;;23.80;16.65;;;13.30;99.90;;;;;;5053706;28;19904;-77
2021/10/11 00:48:37;;;;;;;27.02;19.55;;;13.40;99.90;;;;;;5053236;28;20036;-77
2021/10/11 00:51:05;;;;;;;27.48;19.98;;;13.50;99.90;;;;;;5055030;28;20020;-77
2021/10/11 00:53:32;;;;;;;25.52;18.42;;;13.50;99.90;;;;;;5055010;28;20507;-78
2021/10/11 00:55:58;;;;;;;23.77;17.45;;;13.50;99.90;;;;;;5054843;28;20083;-77
2021/10/11 00:58:24;;;;;;;23.02;17.70;;;13.60;99.90;;;;;;5054476;28;20025;-77
2021/10/11 01:00:50;;;;;;;23.70;18.65;;;13.60;99.90;;;;;;5054842;28;20569;-77
2021/10/11 01:03:16;;;;;;;21.67;16.65;;;13.50;99.90;;;;;;5054795;28;20299;-77
2021/10/11 01:05:41;;;;;;;;;;;13.70;99.90;;;;;;5055179;28;20052;-77
2021/10/11 01:08:07;;;;;;;23.15;17.83;;;13.70;99.90;;;;;;5052932;28;19913;-77
2021/10/11 01:10:33;;;;;;;26.23;20.35;;;13.60;99.90;;;;;;5054536;28;20029;-78
2021/10/11 01:12:59;;;;;;;26.08;19.23;;;13.20;99.90;;;;;;5053340;28;20025;-77
2021/10/11 01:15:25;;;;;;;29.05;22.27;;;13.20;99.90;;;;;;5054620;28;20053;-77
2021/10/11 01:17:50;;;;;;;;;;;12.90;99.90;;;;;;5033943;28;20037;-77
2021/10/11 01:20:16;;;;;;;28.65;21.98;;;12.80;99.90;;;;;;5054222;28;19905;-78
2021/10/11 01:22:44;;;;;;;26.35;19.60;;;12.70;99.90;;;;;;5054501;28;20021;-77
2021/10/11 01:25:12;;;;;;;25.67;19.83;;;13.00;99.90;;;;;;5054343;28;20060;-78
2021/10/11 01:27:38;;;;;;;24.38;18.63;;;13.40;99.90;;;;;;5053963;28;20036;-77
2021/10/11 01:30:05;;;;;;;;;;;13.70;99.90;;;;;;5054393;28;20393;-77
2021/10/11 01:32:31;;;;;;;25.08;17.92;;;13.70;99.90;;;;;;5052702;28;19928;-78
2021/10/11 01:34:57;;;;;;;27.48;19.77;;;13.80;99.90;;;;;;5053830;28;20025;-76
2021/10/11 01:37:23;;;;;;;27.80;20.17;;;14.00;99.90;;;;;;5053768;28;20485;-77
2021/10/11 01:39:48;;;;;;;25.55;19.35;;;14.10;99.90;;;;;;5053990;28;20100;-77
2021/10/11 01:42:14;;;;;;;26.58;18.73;;;13.90;99.90;;;;;;5054028;28;20027;-76
2021/10/11 01:44:40;;;;;;;25.45;19.95;;;14.00;99.90;;;;;;5053951;28;20044;-77
2021/10/11 01:47:06;;;;;;;;;;;14.00;99.90;;;;;;5053830;28;20029;-77
2021/10/11 01:49:32;;;;;;;26.70;19.83;;;13.90;99.90;;;;;;5053949;28;19915;-77
2021/10/11 01:51:57;;;;;;;24.80;19.25;;;13.80;99.90;;;;;;5052551;28;20021;-77
2021/10/11 01:54:23;;;;;;;27.83;22.10;;;13.80;99.90;;;;;;5053824;28;20439;-77
2021/10/11 01:56:49;;;;;;;28.23;21.00;;;13.90;99.90;;;;;;5053534;28;20028;-77
2021/10/11 01:59:15;;;;;;;32.03;24.10;;;13.80;99.90;;;;;;5052648;28;20124;-77
2021/10/11 02:01:40;;;;;;;30.15;23.35;;;13.70;99.90;;;;;;5053779;28;20025;-77
2021/10/11 02:04:06;;;;;;;35.35;27.05;;;13.80;99.90;;;;;;5053514;28;20070;-77
2021/10/11 02:06:32;;;;;;;35.08;25.90;;;13.80;99.90;;;;;;5053648;28;20104;-77
2021/10/11 02:08:58;;;;;;;36.67;25.08;;;13.80;99.90;;;;;;5052974;28;20025;-77
2021/10/11 02:11:24;;;;;;;;;;;13.70;99.90;;;;;;5054011;28;20032;-77
2021/10/11 02:13:49;;;;;;;39.67;27.10;;;14.00;99.90;;;;;;5053520;28;19931;-78
2021/10/11 02:16:15;;;;;;;37.10;25.95;;;14.00;99.90;;;;;;5052125;28;20496;-77
2021/10/11 02:18:41;;;;;;;39.17;27.00;;;13.90;99.90;;;;;;5034109;28;20049;-76
2021/10/11 02:21:07;;;;;;;34.85;27.15;;;14.00;99.90;;;;;;5051947;28;20028;-77
2021/10/11 02:23:33;;;;;;;;;;;14.00;99.90;;;;;;5053802;28;20098;-77
2021/10/11 02:25:59;;;;;;;33.75;24.98;;;14.00;99.90;;;;;;5051978;28;20388;-77
2021/10/11 02:28:24;;;;;;;31.00;22.77;;;14.10;99.90;;;;;;5052701;28;20027;-76
2021/10/11 02:30:50;;;;;;;28.65;19.90;;;14.00;99.90;;;;;;5053070;28;20045;-77
2021/10/11 02:33:16;;;;;;;;;;;14.00;99.90;;;;;;5053464;28;20511;-77
2021/10/11 02:35:42;;;;;;;;;;;14.10;99.90;;;;;;5052271;28;19904;-77
2021/10/11 02:38:07;;;;;;;31.42;21.65;;;14.10;99.90;;;;;;5051459;28;19916;-77
2021/10/11 02:40:35;;;;;;;28.00;19.38;;;14.30;99.90;;;;;;5053093;28;20441;-77
2021/10/11 02:43:01;;;;;;;27.02;19.95;;;14.30;99.90;;;;;;5052268;28;20025;-77
2021/10/11 02:45:27;;;;;;;;;;;14.40;99.90;;;;;;5053301;28;20033;-77
2021/10/11 02:47:53;;;;;;;32.72;24.27;;;14.20;99.90;;;;;;5052587;28;19931;-77
2021/10/11 02:50:20;;;;;;;30.40;22.58;;;14.10;99.90;;;;;;5052609;28;20067;-76
2021/10/11 02:52:49;;;;;;;32.25;23.88;;;14.10;99.90;;;;;;5052927;28;20460;-77
2021/10/11 02:55:15;;;;;;;33.10;22.63;;;14.00;99.90;;;;;;5052830;28;20021;-78
2021/10/11 02:57:41;;;;;;;;;;;14.20;99.90;;;;;;5052892;28;20036;-78
2021/10/11 03:00:07;;;;;;;33.95;24.75;;;14.40;99.90;;;;;;5052861;28;19905;-78
2021/10/11 03:02:33;;;;;;;35.75;24.27;;;14.20;99.90;;;;;;5051468;28;20079;-77
2021/10/11 03:04:59;;;;;;;;;;;14.00;99.90;;;;;;5053050;28;20033;-77
2021/10/11 03:07:25;;;;;;;31.98;21.27;;;13.40;99.90;;;;;;5052300;28;19905;-77
2021/10/11 03:09:50;;;;;;;28.80;21.00;;;13.90;99.90;;;;;;5052670;28;20017;-78
2021/10/11 03:12:16;;;;;;;36.83;23.60;;;14.00;99.90;;;;;;5052685;28;20083;-78
2021/10/11 03:14:42;;;;;;;32.33;24.05;;;13.90;99.90;;;;;;5052712;28;20017;-77
2021/10/11 03:17:08;;;;;;;36.72;23.90;;;13.90;99.90;;;;;;5052389;28;20028;-77
2021/10/11 03:19:34;;;;;;;41.80;26.63;;;14.20;99.90;;;;;;5033713;28;20041;-78
2021/10/11 03:22:00;;;;;;;;;;;14.00;99.90;;;;;;5052959;28;20068;-77
2021/10/11 03:24:26;;;;;;;45.28;30.75;;;14.00;99.90;;;;;;5052563;28;20026;-77
2021/10/11 03:26:52;;;;;;;;;;;13.80;99.90;;;;;;5053052;28;20493;-77
2021/10/11 03:29:17;;;;;;;43.50;28.63;;;13.50;99.90;;;;;;5052026;28;19912;-77
2021/10/11 03:31:43;;;;;;;45.67;32.00;;;13.60;99.90;;;;;;5052254;28;20053;-78
2021/10/11 03:34:11;;;;;;;45.25;31.23;;;13.60;99.90;;;;;;5052303;28;20017;-78
2021/10/11 03:36:38;;;;;;;44.47;31.52;;;13.40;99.90;;;;;;5052404;28;20078;-78
2021/10/11 03:39:06;;;;;;;38.17;27.35;;;13.30;99.90;;;;;;5052261;28;20021;-76
2021/10/11 03:41:33;;;;;;;37.35;25.90;;;13.60;99.90;;;;;;5052433;28;20048;-78
2021/10/11 03:43:59;;;;;;;41.35;30.13;;;13.90;99.90;;;;;;5052464;28;20073;-77
2021/10/11 03:46:25;;;;;;;40.17;28.20;;;13.80;99.90;;;;;;5052310;28;20029;-77
2021/10/11 03:48:51;;;;;;;44.35;30.77;;;13.70;99.90;;;;;;5051853;28;20031;-78
2021/10/11 03:51:21;;;;;;;48.50;32.60;;;13.70;99.90;;;;;;5052410;28;20040;-76
2021/10/11 03:53:47;;;;;;;38.47;26.15;;;13.60;99.90;;;;;;5053418;28;20465;-78
2021/10/11 03:56:13;;;;;;;38.15;27.27;;;13.70;99.90;;;;;;5056114;28;20025;-77
2021/10/11 03:58:39;;;;;;;;;;;13.70;99.90;;;;;;5055920;28;20025;-77
2021/10/11 04:01:04;;;;;;;45.75;28.95;;;13.70;99.90;;;;;;5056211;28;19905;-78
2021/10/11 04:03:31;;;;;;;37.60;26.13;;;13.80;99.90;;;;;;5055851;28;20089;-77
2021/10/11 04:05:57;;;;;;;43.42;28.73;;;13.80;99.90;;;;;;5055936;28;20060;-77
2021/10/11 04:08:29;;;;;;;;;;;14.00;99.90;;;;;;5054520;28;20481;-78
2021/10/11 04:11:01;;;;;;;41.67;28.35;;;14.30;99.90;;;;;;5055568;28;19927;-77
2021/10/11 04:13:27;;;;;;;47.03;30.92;;;14.30;99.90;;;;;;5054238;28;20017;-76
2021/10/11 04:15:52;;;;;;;;;;;14.20;99.90;;;;;;5056107;28;20029;-78
2021/10/11 04:18:18;;;;;;;57.67;30.45;;;13.90;99.90;;;;;;5054004;28;19904;-77
2021/10/11 04:20:45;;;;;;;39.08;26.85;;;14.10;99.90;;;;;;5036597;28;20459;-77
2021/10/11 04:23:11;;;;;;;52.25;32.90;;;14.20;99.90;;;;;;5054370;28;20404;-77
2021/10/11 04:25:37;;;;;;;;;;;14.00;99.90;;;;;;5055915;28;20087;-77
2021/10/11 04:28:03;;;;;;;57.30;34.70;;;13.90;99.90;;;;;;5055074;28;19909;-77
2021/10/11 04:30:29;;;;;;;62.55;34.58;;;13.80;99.90;;;;;;5055180;28;21044;-78
2021/10/11 04:32:55;;;;;;;;;;;14.00;99.90;;;;;;5055819;28;20025;-77
2021/10/11 04:35:25;;;;;;;52.60;31.73;;;14.10;99.90;;;;;;5055128;28;19905;-78
2021/10/11 04:37:51;;;;;;;49.90;31.33;;;14.10;99.90;;;;;;5054844;28;20104;-77
2021/10/11 04:40:18;;;;;;;60.65;32.45;;;14.10;99.90;;;;;;5054052;28;20029;-77
2021/10/11 04:42:44;;;;;;;50.50;30.30;;;14.00;99.90;;;;;;5053916;28;20400;-77
2021/10/11 04:45:11;;;;;;;;;;;14.20;99.90;;;;;;5054226;28;20036;-77
2021/10/11 04:47:37;;;;;;;52.90;28.23;;;14.50;99.90;;;;;;5054695;28;19904;-77
2021/10/11 04:50:03;;;;;;;;;;;14.50;99.90;;;;;;5055237;28;20370;-77
2021/10/11 04:52:29;;;;;;;62.15;32.45;;;14.50;99.90;;;;;;5055135;28;19916;-77
2021/10/11 04:54:54;;;;;;;51.30;30.40;;;14.60;99.90;;;;;;5053687;28;20067;-77
2021/10/11 04:57:20;;;;;;;49.95;30.67;;;14.50;99.90;;;;;;5053635;28;20029;-77
2021/10/11 04:59:46;;;;;;;51.65;29.08;;;14.60;99.90;;;;;;5053359;28;20025;-77
2021/10/11 05:02:12;;;;;;;49.45;27.50;;;14.60;99.90;;;;;;5054814;28;20024;-77
2021/10/11 05:04:38;;;;;;;45.97;28.63;;;14.50;99.90;;;;;;5054551;28;20036;-77
2021/10/11 05:07:04;;;;;;;50.17;28.67;;;14.60;99.90;;;;;;5053902;28;20113;-80
2021/10/11 05:09:29;;;;;;;;;;;14.60;99.90;;;;;;5053281;28;20107;-77
2021/10/11 05:11:55;;;;;;;53.05;30.23;;;14.20;99.90;;;;;;5069981;28;19955;-77
2021/10/11 05:14:21;;;;;;;49.65;30.02;;;14.20;99.90;;;;;;5054688;28;20039;-77
2021/10/11 05:16:48;;;;;;;62.58;37.05;;;14.40;99.90;;;;;;5053183;28;20061;-78
2021/10/11 05:19:14;;;;;;;50.20;31.10;;;14.20;99.90;;;;;;5033805;28;20056;-78
2021/10/11 05:21:40;;;;;;;55.47;32.20;;;14.20;99.90;;;;;;5054217;28;20055;-78
2021/10/11 05:24:06;;;;;;;;;;;14.30;99.90;;;;;;5054800;28;20021;-77
2021/10/11 05:26:32;;;;;;;52.22;30.25;;;14.40;99.90;;;;;;5054204;28;20396;-77
2021/10/11 05:28:58;;;;;;;48.20;29.15;;;14.30;99.90;;;;;;5053873;28;20033;-77
2021/10/11 05:31:25;;;;;;;48.50;29.08;;;14.50;99.90;;;;;;5054062;28;20040;-77
2021/10/11 05:33:51;;;;;;;51.53;31.08;;;14.70;99.90;;;;;;5053927;28;20025;-77
2021/10/11 05:36:16;;;;;;;;;;;14.70;99.90;;;;;;5054594;28;20090;-77
2021/10/11 05:38:42;;;;;;;67.25;33.35;;;14.80;99.90;;;;;;5053592;28;19920;-77
2021/10/11 05:41:08;;;;;;;53.50;31.67;;;14.80;99.90;;;;;;5053990;28;20039;-77
2021/10/11 05:43:34;;;;;;;50.88;30.77;;;14.80;99.90;;;;;;5054005;28;20029;-77
2021/10/11 05:46:01;;;;;;;;;;;14.80;99.90;;;;;;5054142;28;20033;-77
2021/10/11 05:48:26;;;;;;;63.92;33.10;;;14.80;99.90;;;;;;5053679;28;19916;-77
2021/10/11 05:50:52;;;;;;;;;;;14.80;99.90;;;;;;5054289;28;20021;-77
2021/10/11 05:53:18;;;;;;;56.88;30.15;;;14.70;99.90;;;;;;5053893;28;20422;-76
2021/10/11 05:55:43;;;;;;;65.15;34.00;;;14.60;99.90;;;;;;5053778;28;20044;-77
2021/10/11 05:58:09;;;;;;;64.18;33.42;;;14.50;99.90;;;;;;5053291;28;20099;-78
2021/10/11 06:00:35;;;;;;;;;;;14.40;99.90;;;;;;5054187;28;20033;-78
2021/10/11 06:03:00;;;;;;;53.50;29.38;;;14.40;99.90;;;;;;5053579;28;19905;-77
2021/10/11 06:05:26;;;;;;;57.58;28.70;;;14.60;99.90;;;;;;5051881;28;20462;-77
2021/10/11 06:07:52;;;;;;;61.83;29.83;;;14.60;99.90;;;;;;5053229;28;20033;-77
2021/10/11 06:10:18;;;;;;;;;;;14.60;99.90;;;;;;5053650;28;20017;-77
2021/10/11 06:12:43;;;;;;;52.33;28.58;;;14.40;99.90;;;;;;5053631;28;19912;-77
2021/10/11 06:15:10;;;;;;;46.92;28.83;;;14.50;99.90;;;;;;5053365;28;20063;-76
2021/10/11 06:17:36;;;;;;;50.28;28.45;;;14.40;99.90;;;;;;5052108;28;20028;-77
2021/10/11 06:20:02;;;;;;;;;;;14.50;99.90;;;;;;5034390;28;20037;-77
2021/10/11 06:22:27;;;;;;;51.88;26.55;;;14.60;99.90;;;;;;5053095;28;19905;-78
2021/10/11 06:24:54;;;;;;;48.85;27.38;;;14.50;99.90;;;;;;5053223;28;20092;-77
2021/10/11 06:27:20;;;;;;;47.20;25.70;;;14.60;99.90;;;;;;5053155;28;20047;-77
2021/10/11 06:29:45;;;;;;;;;;;14.30;99.90;;;;;;5053013;28;20485;-77
2021/10/11 06:32:12;;;;;;;41.85;22.30;;;14.30;99.90;;;;;;5052893;28;19916;-78
2021/10/11 06:34:39;;;;;;;39.38;24.85;;;14.40;99.90;;;;;;5052949;28;20021;-78
2021/10/11 06:37:04;;;;;;;49.05;27.30;;;14.50;99.90;;;;;;5052984;28;20023;-77
2021/10/11 06:39:30;;;;;;;;;;;14.50;99.90;;;;;;5051637;28;20029;-78
2021/10/11 06:41:56;;;;;;;;;;;14.40;99.90;;;;;;5052434;28;19928;-78
2021/10/11 06:44:21;;;;;;;;;;;14.30;99.90;;;;;;5053429;28;19905;-78
2021/10/11 06:46:49;;;;;;;;;;;14.40;99.90;;;;;;5053024;28;19994;-77
2021/10/11 06:49:15;;;;;;;74.57;23.38;;;14.40;99.90;;;;;;5052342;28;20008;-77
2021/10/11 06:51:40;;;;;;;;;;;14.50;99.90;;;;;;5053270;28;20017;-78
2021/10/11 06:54:06;;;;;;;43.50;22.25;;;14.50;99.90;;;;;;5052936;28;19912;-78
2021/10/11 06:56:32;;;;;;;31.55;20.55;;;14.40;99.90;;;;;;5052860;28;20025;-78
2021/10/11 06:58:57;;;;;;;34.35;20.20;;;14.30;99.90;;;;;;5052329;28;20053;-78
2021/10/11 07:01:23;;;;;;;34.47;20.52;;;14.50;99.90;;;;;;5051365;28;20063;-77
2021/10/11 07:03:50;;;;;;;27.33;18.48;;;14.50;99.90;;;;;;5051404;28;20040;-78
2021/10/11 07:06:19;;;;;;;52.47;21.65;;;14.70;99.90;;;;;;5052640;28;20029;-78
2021/10/11 07:08:45;;;;;;;47.05;22.88;;;14.70;99.90;;;;;;5052231;28;20017;-78
2021/10/11 07:11:10;;;;;;;;;;;14.40;99.90;;;;;;5053117;28;20037;-78
2021/10/11 07:13:36;;;;;;;28.10;19.80;;;14.40;99.90;;;;;;5052660;28;19911;-78
2021/10/11 07:16:05;;;;;;;;;;;14.60;99.90;;;;;;5053117;28;20017;-78
2021/10/11 07:18:33;;;;;;;31.92;17.17;;;14.70;99.90;;;;;;5052195;28;20381;-78
2021/10/11 07:20:59;;;;;;;38.55;19.13;;;14.80;99.90;;;;;;5032115;28;20135;-78
2021/10/11 07:23:25;;;;;;;39.65;18.95;;;15.00;99.90;;;;;;5052480;28;20071;-77
2021/10/11 07:25:51;;;;;;;;;;;15.00;99.90;;;;;;5053130;28;20401;-78
2021/10/11 07:28:17;;;;;;;31.40;19.65;;;15.00;99.90;;;;;;5050739;28;19919;-78
2021/10/11 07:30:43;;;;;;;37.08;19.88;;;15.00;99.90;;;;;;5056289;28;20044;-77
2021/10/11 07:33:09;;;;;;;;;;;14.80;99.90;;;;;;5056866;28;20024;-77
2021/10/11 07:35:35;;;;;;;35.75;19.15;;;14.70;99.90;;;;;;5055045;28;19908;-78
2021/10/11 07:38:01;;;;;;;32.25;18.38;;;14.80;99.90;;;;;;5056163;28;20126;-78
2021/10/11 07:40:26;;;;;;;;;;;14.80;99.90;;;;;;5056768;28;20025;-78
2021/10/11 07:42:52;;;;;;;30.25;16.27;;;15.00;99.90;;;;;;5056350;28;19905;-78
2021/10/11 07:45:18;;;;;;;;;;;15.10;99.90;;;;;;5056623;28;20032;-78
2021/10/11 07:47:45;;;;;;;32.17;16.33;;;15.10;99.90;;;;;;5056103;28;20304;-77
2021/10/11 07:50:11;;;;;;;30.95;16.67;;;15.20;99.90;;;;;;5055549;28;20029;-78
2021/10/11 07:52:37;;;;;;;27.17;16.58;;;15.30;99.90;;;;;;5054912;28;20025;-78
2021/10/11 07:55:04;;;;;;;27.75;15.75;;;15.50;99.90;;;;;;5056004;28;20040;-77
2021/10/11 07:57:33;;;;;;;26.90;15.70;;;15.80;99.90;;;;;;5056128;28;20025;-78
2021/10/11 08:00:09;;;;;;;32.10;16.33;;;15.90;99.90;;;;;;5054150;28;20063;-78
2021/10/11 08:02:35;;;;;;;28.10;14.85;;;15.90;99.90;;;;;;5054365;28;20386;-78
2021/10/11 08:05:01;;;;;;;;;;;16.30;99.90;;;;;;5056119;28;20088;-79
2021/10/11 08:07:26;;;;;;;23.70;14.05;;;16.70;99.90;;;;;;5055828;28;19912;-78
2021/10/11 08:09:52;;;;;;;;;;;17.20;99.90;;;;;;5054489;28;20108;-79
2021/10/11 08:12:18;;;;;;;24.77;13.15;;;17.80;99.90;;;;;;5055851;28;19950;-79
2021/10/11 08:14:44;;;;;;;23.02;12.93;;;19.20;99.90;;;;;;5055749;28;20108;-79
2021/10/11 08:17:11;;;;;;;19.20;12.05;;;19.90;99.90;;;;;;5055767;28;20013;-78
2021/10/11 08:19:37;;;;;;;23.52;12.80;;;20.90;99.90;;;;;;5034728;28;20040;-79
2021/10/11 08:22:03;;;;;;;25.10;12.10;;;21.10;99.90;;;;;;5055460;28;20033;-79
2021/10/11 08:24:30;;;;;;;17.48;11.05;;;21.20;99.90;;;;;;5055500;28;20074;-79
2021/10/11 08:26:56;;;;;;;20.10;12.02;;;22.20;99.90;;;;;;5055601;28;20037;-80
2021/10/11 08:29:22;;;;;;;20.75;11.15;;;21.40;99.90;;;;;;5054991;28;20025;-79
2021/10/11 08:31:48;;;;;;;19.13;12.35;;;21.50;99.90;;;;;;5053825;28;20048;-79
2021/10/11 08:34:14;;;;;;;18.52;11.35;;;21.10;99.90;;;;;;5055329;28;20021;-79
2021/10/11 08:36:40;;;;;;;18.13;10.55;;;21.20;99.90;;;;;;5055316;28;20108;-79
2021/10/11 08:39:06;;;;;;;16.65;10.57;;;22.20;99.90;;;;;;5054975;28;20163;-79
2021/10/11 08:41:32;;;;;;;19.58;11.20;;;23.10;99.70;;;;;;5054113;28;20541;-80
2021/10/11 08:43:58;;;;;;;24.98;11.18;;;23.10;97.10;;;;;;5055145;28;20516;-79
2021/10/11 08:46:24;;;;;;;25.00;11.68;;;23.50;95.60;;;;;;5053666;28;20025;-80
2021/10/11 08:48:50;;;;;;;15.65;9.10;;;23.80;95.00;;;;;;5054720;28;20021;-78
2021/10/11 08:51:16;;;;;;;17.55;10.25;;;23.40;95.40;;;;;;5055119;28;20120;-79
2021/10/11 08:53:42;;;;;;;20.45;10.13;;;22.40;95.60;;;;;;5054990;28;20017;-79
2021/10/11 08:56:11;;;;;;;17.17;10.40;;;21.80;96.60;;;;;;5055001;28;20029;-78
2021/10/11 08:58:44;;;;;;;21.13;11.52;;;21.10;97.90;;;;;;5054443;28;20017;-79
2021/10/11 09:01:10;;;;;;;21.90;9.98;;;20.60;99.90;;;;;;5054906;28;20028;-78
2021/10/11 09:03:36;;;;;;;19.05;9.82;;;20.60;99.90;;;;;;5054732;28;20072;-79
2021/10/11 09:06:07;;;;;;;16.95;9.10;;;21.00;99.90;;;;;;5054756;28;20033;-79
2021/10/11 09:08:35;;;;;;;18.45;9.30;;;22.50;99.40;;;;;;5053114;28;20053;-79
2021/10/11 09:11:04;;;;;;;15.82;8.43;;;24.20;94.90;;;;;;5054362;28;20021;-79
2021/10/11 09:13:38;;;;;;;15.50;8.68;;;23.00;94.10;;;;;;5054985;28;20025;-79
2021/10/11 09:16:08;;;;;;;20.83;9.18;;;23.80;92.20;;;;;;5052979;28;20056;-79
2021/10/11 09:18:36;;;;;;;16.00;8.02;;;23.90;92.20;;;;;;5052945;28;20124;-79
2021/10/11 09:21:03;;;;;;;15.18;8.65;;;24.90;90.40;;;;;;5035511;28;20044;-80
2021/10/11 09:23:31;;;;;;;12.93;7.53;;;26.60;83.90;;;;;;5054496;28;20103;-80
2021/10/11 09:25:59;;;;;;;31.80;8.20;;;29.00;75.20;;;;;;5053068;28;20025;-80
2021/10/11 09:28:26;;;;;;;13.80;7.47;;;26.50;76.70;;;;;;5054039;28;20025;-80
2021/10/11 09:30:53;;;;;;;12.63;6.45;;;28.60;72.90;;;;;;5052803;28;20076;-80
2021/10/11 09:33:21;;;;;;;15.20;6.75;;;29.20;71.50;;;;;;5054070;28;20029;-80
2021/10/11 09:35:50;;;;;;;16.58;6.45;;;28.50;68.10;;;;;;5052926;28;20040;-80
2021/10/11 09:38:27;;;;;;;15.45;7.07;;;27.00;70.70;;;;;;5052838;28;20025;-80
2021/10/11 09:40:56;;;;;;;17.15;6.93;;;27.50;70.60;;;;;;5052412;28;20114;-80
2021/10/11 09:43:24;;;;;;;14.15;5.68;;;29.20;68.90;;;;;;5052792;28;20428;-79
2021/10/11 09:45:51;;;;;;;14.90;6.38;;;29.90;66.20;;;;;;5052564;28;20029;-80
2021/10/11 09:48:18;;;;;;;16.65;6.75;;;30.90;62.80;;;;;;5053925;28;20048;-80
2021/10/11 09:50:44;;;;;;;13.35;5.95;;;32.00;59.00;;;;;;5053502;28;20017;-81
2021/10/11 09:53:12;;;;;;;11.27;5.32;;;32.70;56.30;;;;;;5053614;28;20028;-81
2021/10/11 09:55:40;;;;;;;13.88;5.50;;;33.40;54.40;;;;;;5053940;28;20025;-81
2021/10/11 09:58:09;;;;;;;9.70;4.80;;;33.50;54.50;;;;;;5053544;28;20028;-82
2021/10/11 10:00:36;;;;;;;23.30;8.02;;;35.90;52.20;;;;;;5053426;28;20091;-82
2021/10/11 10:03:02;;;;;;;19.17;7.95;;;35.40;50.10;;;;;;5053661;28;20021;-81
2021/10/11 10:05:33;;;;;;;13.05;7.72;;;35.00;49.70;;;;;;5052141;28;20028;-81
2021/10/11 10:08:09;;;;;;;19.85;5.40;;;34.10;51.00;;;;;;5053534;28;20096;-80
2021/10/11 10:10:37;;;;;;;19.27;5.38;;;32.30;52.60;;;;;;5051802;28;20060;-81
2021/10/11 10:13:15;;;;;;;15.85;8.27;;;34.60;49.80;;;;;;5052362;28;20032;-82
2021/10/11 10:15:41;;;;;;;16.92;6.40;;;34.40;49.50;;;;;;5051967;28;20021;-82
2021/10/11 10:18:09;;;;;;;13.68;5.85;;;34.60;49.40;;;;;;5053123;28;20013;-82
2021/10/11 10:20:48;;;;;;;14.60;5.47;;;34.20;49.30;;;;;;5033771;28;20060;-82
2021/10/11 10:23:22;;;;;;;14.48;6.15;;;35.30;48.60;;;;;;5053406;28;20028;-81
2021/10/11 10:25:48;;;;;;;11.55;5.20;;;33.90;49.40;;;;;;5053431;28;20036;-82
2021/10/11 10:28:15;;;;;;;11.15;5.15;;;35.70;48.70;;;;;;5053205;28;20074;-81
2021/10/11 10:30:41;;;;;;;12.30;5.15;;;35.70;47.90;;;;;;5051421;28;20049;-82
2021/10/11 10:33:09;;;;;;;11.57;5.03;;;36.10;46.00;;;;;;5051635;28;20021;-81
2021/10/11 10:35:45;;;;;;;10.05;4.25;;;35.00;45.40;;;;;;5051552;28;20053;-81
2021/10/11 10:38:19;;;;;;;10.65;4.28;;;33.70;47.50;;;;;;5051560;28;20398;-81
2021/10/11 10:40:44;;;;;;;;;;;31.70;51.00;;;;;;5052998;28;20021;-81
2021/10/11 10:43:15;;;;;;;11.45;4.07;;;31.60;49.60;;;;;;5053193;28;19905;-80
2021/10/11 10:45:41;;;;;;;10.88;3.55;;;30.00;51.30;;;;;;5051534;28;20546;-81
2021/10/11 10:48:20;;;;;;;11.90;3.58;;;31.50;51.30;;;;;;5052928;28;20095;-81
2021/10/11 10:50:47;;;;;;;16.05;3.75;;;30.70;50.50;;;;;;5052637;28;20393;-81
2021/10/11 10:53:13;;;;;;;10.68;3.88;;;31.50;49.60;;;;;;5052931;28;20525;-81
2021/10/11 10:55:41;;;;;;;8.73;3.85;;;32.10;49.50;;;;;;5051641;28;20028;-81
2021/10/11 10:58:10;;;;;;;11.55;4.78;;;32.80;49.50;;;;;;5051278;28;20462;-81
2021/10/11 11:00:37;;;;;;;10.98;4.50;;;33.50;47.60;;;;;;5052435;28;20024;-82
2021/10/11 11:03:03;;;;;;;16.60;5.40;;;35.50;46.80;;;;;;5051130;28;20374;-82
2021/10/11 11:05:30;;;;;;;12.32;4.88;;;34.70;46.20;;;;;;5050988;28;20082;-82
2021/10/11 11:07:56;;;;;;;9.57;4.80;;;35.50;46.90;;;;;;5051358;28;20108;-82
2021/10/11 11:10:28;;;;;;;12.15;4.30;;;37.40;43.10;;;;;;5052244;28;20362;-81
2021/10/11 11:12:57;;;;;;;9.98;3.85;;;37.40;42.60;;;;;;5051267;28;20037;-81
2021/10/11 11:15:24;;;;;;;8.68;3.38;;;37.10;42.50;;;;;;5052608;28;20017;-82
2021/10/11 11:17:50;;;;;;;9.93;3.83;;;37.30;41.00;;;;;;5051424;28;20028;-81
2021/10/11 11:20:21;;;;;;;10.73;4.85;;;37.90;41.70;;;;;;5031792;28;20471;-82
2021/10/11 11:22:47;;;;;;;10.45;4.53;;;39.80;39.60;;;;;;5052457;28;20024;-82
2021/10/11 11:25:13;;;;;;;12.48;5.50;;;39.30;39.80;;;;;;5052676;28;20025;-82
2021/10/11 11:27:45;;;;;;;10.10;4.40;;;39.20;39.20;;;;;;5051402;28;20060;-81
2021/10/11 11:30:15;;;;;;;8.63;4.00;;;38.50;40.10;;;;;;5052124;28;20021;-81
2021/10/11 11:32:52;;;;;;;10.60;4.55;;;38.90;40.30;;;;;;5050890;28;20025;-82
2021/10/11 11:35:28;;;;;;;9.48;4.10;;;40.00;38.90;;;;;;5052261;28;20459;-82
2021/10/11 11:38:00;;;;;;;10.60;4.30;;;38.60;38.40;;;;;;5052487;28;20446;-82
2021/10/11 11:40:30;;;;;;;11.05;4.40;;;40.20;38.40;;;;;;5052032;28;20033;-81
2021/10/11 11:42:56;;;;;;;10.77;4.97;;;40.90;37.30;;;;;;5051299;28;20040;-82
2021/10/11 11:45:34;;;;;;;9.55;4.80;;;40.60;37.20;;;;;;5051017;28;20017;-82
2021/10/11 11:48:26;;;;;;;11.85;4.88;;;41.70;36.30;;;;;;5052564;28;20057;-82
2021/10/11 11:51:03;;;;;;;9.82;5.00;;;40.90;36.00;;;;;;5051979;28;20017;-82
2021/10/11 11:53:32;;;;;;;13.43;5.82;;;41.80;36.80;;;;;;5050734;28;20025;-82
2021/10/11 11:55:59;;;;;;;26.45;6.00;;;42.70;36.60;;;;;;5052492;28;20493;-82
2021/10/11 11:58:37;;;;;;;13.27;3.35;;;41.00;36.60;;;;;;5051979;28;20067;-82
2021/10/11 12:01:13;;;;;;;9.30;3.60;;;37.30;37.60;;;;;;5051867;28;20020;-82
2021/10/11 12:03:47;;;;;;;10.18;4.00;;;39.90;38.30;;;;;;5052224;28;20021;-82
2021/10/11 12:06:14;;;;;;;11.75;4.45;;;41.80;37.40;;;;;;5051013;28;20112;-82
2021/10/11 12:08:44;;;;;;;16.60;6.05;;;42.80;35.10;;;;;;5052182;28;20037;-82
2021/10/11 12:11:10;;;;;;;9.80;5.05;;;43.50;34.30;;;;;;5050564;28;20484;-82
2021/10/11 12:13:44;;;;;;;13.02;5.10;;;43.00;34.70;;;;;;5052111;28;20063;-82
2021/10/11 12:16:28;;;;;;;28.30;6.30;;;41.10;35.70;;;;;;5053544;28;20029;-82
2021/10/11 12:18:56;;;;;;;14.27;6.97;;;42.40;36.30;;;;;;5054117;28;20033;-83
2021/10/11 12:21:28;;;;;;;12.27;3.60;;;43.30;34.20;;;;;;5034758;28;20060;-81
2021/10/11 12:23:59;;;;;;;11.32;3.45;;;37.40;38.30;;;;;;5054129;28;20416;-81
2021/10/11 12:26:27;;;;;;;11.52;3.90;;;35.40;42.20;;;;;;5055630;28;20084;-82
2021/10/11 12:29:02;;;;;;;10.52;3.90;;;40.60;37.70;;;;;;5055544;28;20033;-82
2021/10/11 12:31:34;;;;;;;13.65;3.60;;;39.70;36.60;;;;;;5055021;28;20045;-81
2021/10/11 12:34:10;;;;;;;8.77;3.17;;;35.40;39.50;;;;;;5053902;28;20037;-81
2021/10/11 12:36:47;;;;;;;12.55;4.40;;;38.70;38.60;;;;;;5055413;28;20029;-81
2021/10/11 12:39:13;;;;;;;9.85;4.93;;;42.30;35.90;;;;;;5053761;28;20024;-82
2021/10/11 12:41:42;;;;;;;18.63;5.82;;;44.00;35.00;;;;;;5055336;28;20032;-82
2021/10/11 12:44:08;;;;;;;17.17;5.03;;;42.20;34.40;;;;;;5055365;28;20454;-82
2021/10/11 12:46:42;;;;;;;10.32;4.50;;;42.20;33.60;;;;;;5054878;28;20014;-82